createdAt,value
2023-05-14T00:02:07.076Z,14.32
2023-05-14T00:05:00.508Z,13.94
2023-05-14T00:07:30.807Z,13.97
2023-05-14T00:09:59.420Z,13.91
2023-05-14T00:12:27.447Z,13.76
2023-05-14T00:14:58.046Z,13.68
2023-05-14T00:17:25.736Z,13.53
2023-05-14T00:19:53.521Z,13.61
2023-05-14T00:22:21.256Z,13.79
2023-05-14T00:24:48.903Z,13.66
2023-05-14T00:27:16.663Z,13.74
2023-05-14T00:29:45.732Z,14.08
2023-05-14T00:32:13.563Z,14.39
2023-05-14T00:34:41.346Z,14.63
2023-05-14T00:37:09.078Z,14.73
2023-05-14T00:39:37.079Z,14.76
2023-05-14T00:42:04.885Z,14.85
2023-05-14T00:44:32.746Z,14.77
2023-05-14T00:47:00.828Z,14.65
2023-05-14T00:49:28.809Z,14.52
2023-05-14T00:51:58.924Z,14.70
2023-05-14T00:54:28.117Z,14.82
2023-05-14T00:56:56.315Z,14.36
2023-05-14T00:59:23.908Z,14.51
2023-05-14T01:01:51.620Z,14.65
2023-05-14T01:04:19.890Z,14.67
2023-05-14T01:07:14.800Z,14.64
2023-05-14T01:10:17.442Z,13.87
2023-05-14T01:12:57.125Z,13.01
2023-05-14T01:15:30.976Z,12.72
2023-05-14T01:18:09.466Z,12.77
2023-05-14T01:20:38.167Z,12.87
2023-05-14T01:23:05.946Z,13.80
2023-05-14T01:25:33.766Z,14.39
2023-05-14T01:28:17.360Z,13.74
2023-05-14T01:31:12.098Z,14.52
2023-05-14T01:33:42.256Z,14.47
2023-05-14T01:36:10.777Z,14.15
2023-05-14T01:38:39.636Z,14.25
2023-05-14T01:41:07.550Z,14.50
2023-05-14T01:43:37.300Z,14.87
2023-05-14T01:46:05.280Z,15.01
2023-05-14T01:48:33.298Z,14.94
2023-05-14T01:51:02.239Z,14.95
2023-05-14T01:53:29.967Z,15.01
2023-05-14T01:55:57.624Z,14.99
2023-05-14T01:58:25.458Z,14.96
2023-05-14T02:00:53.149Z,14.97
2023-05-14T02:03:21.583Z,14.96
2023-05-14T02:05:49.290Z,14.70
2023-05-14T02:08:17.623Z,14.42
2023-05-14T02:10:45.422Z,14.51
2023-05-14T02:13:13.081Z,14.75
2023-05-14T02:15:40.882Z,14.83
2023-05-14T02:18:08.567Z,14.82
2023-05-14T02:20:36.274Z,14.85
2023-05-14T02:23:04.075Z,14.81
2023-05-14T02:25:31.664Z,14.73
2023-05-14T02:27:59.218Z,14.65
2023-05-14T02:30:27.003Z,14.57
2023-05-14T02:32:55.003Z,14.65
2023-05-14T02:35:22.978Z,14.65
2023-05-14T02:37:50.687Z,14.54
2023-05-14T02:40:18.387Z,14.45
2023-05-14T02:42:46.186Z,13.44
2023-05-14T02:45:13.907Z,12.85
2023-05-14T02:47:41.878Z,12.75
2023-05-14T02:50:11.167Z,12.81
2023-05-14T02:52:39.002Z,12.92
2023-05-14T02:55:07.102Z,13.33
2023-05-14T02:57:34.864Z,13.68
2023-05-14T03:00:02.555Z,13.73
2023-05-14T03:02:32.632Z,13.77
2023-05-14T03:05:00.746Z,13.44
2023-05-14T03:07:28.412Z,13.36
2023-05-14T03:09:56.397Z,13.36
2023-05-14T03:12:23.990Z,13.37
2023-05-14T03:14:51.664Z,13.38
2023-05-14T03:17:19.420Z,13.19
2023-05-14T03:19:47.102Z,12.52
2023-05-14T03:22:14.769Z,11.85
2023-05-14T03:24:42.561Z,11.49
2023-05-14T03:27:10.214Z,11.12
2023-05-14T03:29:37.896Z,10.07
2023-05-14T03:32:06.361Z,10.54
2023-05-14T03:34:34.153Z,11.33
2023-05-14T03:37:01.894Z,12.11
2023-05-14T03:39:29.527Z,12.00
2023-05-14T03:41:58.831Z,12.48
2023-05-14T03:44:26.775Z,12.65
2023-05-14T03:46:54.352Z,12.70
2023-05-14T03:49:22.415Z,12.90
2023-05-14T03:51:49.984Z,12.91
2023-05-14T03:54:17.853Z,12.99
2023-05-14T03:56:45.923Z,13.06
2023-05-14T03:59:14.225Z,13.21
2023-05-14T04:01:41.966Z,12.12
2023-05-14T04:04:09.708Z,12.37
2023-05-14T04:06:37.485Z,11.98
2023-05-14T04:09:05.286Z,11.52
2023-05-14T04:11:32.925Z,11.99
2023-05-14T04:14:00.900Z,12.38
2023-05-14T04:16:28.729Z,12.60
2023-05-14T04:18:56.599Z,12.95
2023-05-14T04:21:24.304Z,12.49
2023-05-14T04:23:51.924Z,12.44
2023-05-14T04:26:19.572Z,12.49
2023-05-14T04:28:47.509Z,12.38
2023-05-14T04:31:15.807Z,12.92
2023-05-14T04:33:43.560Z,13.10
2023-05-14T04:36:11.207Z,12.76
2023-05-14T04:38:38.930Z,12.57
2023-05-14T04:41:07.075Z,12.45
2023-05-14T04:43:34.789Z,12.73
2023-05-14T04:46:02.591Z,12.60
2023-05-14T04:48:30.437Z,12.43
2023-05-14T04:50:58.111Z,12.22
2023-05-14T04:53:25.768Z,12.06
2023-05-14T04:55:54.064Z,11.95
2023-05-14T04:58:23.535Z,12.07
2023-05-14T05:00:51.236Z,11.77
2023-05-14T05:03:18.976Z,11.84
2023-05-14T05:05:46.635Z,11.50
2023-05-14T05:08:14.265Z,12.03
2023-05-14T05:10:42.085Z,12.20
2023-05-14T05:13:09.823Z,12.29
2023-05-14T05:15:37.523Z,12.85
2023-05-14T05:18:05.355Z,12.96
2023-05-14T05:20:33.067Z,13.15
2023-05-14T05:23:00.780Z,13.26
2023-05-14T05:25:28.376Z,13.14
2023-05-14T05:27:55.979Z,13.14
2023-05-14T05:30:23.855Z,13.50
2023-05-14T05:32:51.789Z,14.00
2023-05-14T05:35:19.543Z,14.04
2023-05-14T05:37:47.143Z,14.27
2023-05-14T05:40:15.698Z,14.44
2023-05-14T05:42:43.588Z,14.98
2023-05-14T05:45:11.378Z,15.08
2023-05-14T05:47:39.034Z,15.24
2023-05-14T05:50:07.686Z,15.02
2023-05-14T05:52:35.490Z,15.16
2023-05-14T05:55:03.635Z,14.69
2023-05-14T05:57:31.333Z,15.68
2023-05-14T05:59:59.108Z,15.54
2023-05-14T06:02:26.851Z,15.95
2023-05-14T06:04:54.812Z,16.00
2023-05-14T06:07:22.461Z,16.27
2023-05-14T06:09:50.229Z,16.62
2023-05-14T06:12:17.841Z,16.51
2023-05-14T06:14:45.526Z,16.63
2023-05-14T06:17:13.101Z,16.62
2023-05-14T06:19:40.793Z,16.91
2023-05-14T06:22:08.348Z,16.32
2023-05-14T06:24:35.913Z,16.22
2023-05-14T06:27:03.717Z,15.91
2023-05-14T06:29:31.361Z,16.23
2023-05-14T06:32:03.714Z,14.64
2023-05-14T06:34:31.798Z,15.86
2023-05-14T06:37:00.261Z,16.23
2023-05-14T06:39:28.032Z,16.39
2023-05-14T06:41:55.728Z,16.70
2023-05-14T06:44:24.448Z,16.20
2023-05-14T06:46:52.072Z,17.22
2023-05-14T06:49:19.821Z,16.72
2023-05-14T06:51:47.393Z,16.71
2023-05-14T06:54:15.153Z,17.06
2023-05-14T06:56:42.821Z,17.34
2023-05-14T06:59:10.427Z,16.75
2023-05-14T07:01:38.082Z,16.56
2023-05-14T07:04:07.037Z,16.60
2023-05-14T07:06:35.110Z,17.70
2023-05-14T07:09:03.156Z,18.68
2023-05-14T07:11:30.963Z,17.80
2023-05-14T07:13:58.867Z,16.63
2023-05-14T07:16:26.842Z,17.40
2023-05-14T07:18:54.544Z,18.49
2023-05-14T07:21:22.112Z,17.93
2023-05-14T07:23:49.820Z,17.39
2023-05-14T07:26:17.606Z,18.40
2023-05-14T07:28:45.416Z,18.03
2023-05-14T07:31:13.125Z,17.65
2023-05-14T07:33:40.811Z,18.76
2023-05-14T07:36:08.935Z,18.80
2023-05-14T07:38:36.848Z,19.39
2023-05-14T07:41:04.920Z,19.52
2023-05-14T07:43:32.841Z,20.01
2023-05-14T07:46:00.550Z,20.27
2023-05-14T07:48:28.407Z,19.80
2023-05-14T07:50:56.150Z,20.29
2023-05-14T07:53:24.904Z,20.68
2023-05-14T07:55:52.736Z,20.99
2023-05-14T07:58:20.527Z,20.60
2023-05-14T08:00:48.126Z,19.41
2023-05-14T08:03:16.025Z,19.69
2023-05-14T08:05:43.727Z,20.56
2023-05-14T08:08:12.495Z,19.74
2023-05-14T08:10:40.289Z,18.36
2023-05-14T08:13:08.800Z,18.88
2023-05-14T08:15:37.017Z,19.54
2023-05-14T08:18:04.818Z,19.49
2023-05-14T08:20:32.742Z,20.20
2023-05-14T08:23:00.677Z,21.35
2023-05-14T08:25:28.367Z,20.85
2023-05-14T08:27:56.122Z,20.84
2023-05-14T08:30:24.182Z,22.17
2023-05-14T08:32:52.834Z,21.61
2023-05-14T08:35:20.721Z,21.55
2023-05-14T08:37:49.639Z,22.42
2023-05-14T08:40:17.552Z,20.98
2023-05-14T08:42:45.660Z,21.79
2023-05-14T08:45:20.113Z,21.11
2023-05-14T08:47:50.537Z,21.30
2023-05-14T08:50:23.522Z,22.69
2023-05-14T08:52:52.815Z,23.35
2023-05-14T08:55:21.116Z,22.56
2023-05-14T08:57:49.099Z,22.06
2023-05-14T09:00:16.837Z,21.42
2023-05-14T09:02:46.605Z,21.72
2023-05-14T09:05:15.408Z,21.48
2023-05-14T09:07:43.226Z,21.88
2023-05-14T09:10:12.667Z,22.15
2023-05-14T09:12:40.492Z,21.21
2023-05-14T09:15:08.800Z,22.16
2023-05-14T09:17:36.593Z,22.76
2023-05-14T09:20:05.104Z,22.34
2023-05-14T09:22:32.913Z,22.38
2023-05-14T09:25:12.246Z,22.83
2023-05-14T09:27:40.274Z,22.59
2023-05-14T09:30:13.284Z,22.08
2023-05-14T09:32:47.082Z,21.46
2023-05-14T09:35:23.863Z,21.87
2023-05-14T09:37:54.288Z,22.52
2023-05-14T09:40:24.654Z,22.55
2023-05-14T09:42:52.967Z,21.99
2023-05-14T09:45:20.856Z,21.26
2023-05-14T09:47:48.800Z,20.69
2023-05-14T09:50:16.650Z,21.07
2023-05-14T09:52:44.345Z,21.77
2023-05-14T09:55:11.973Z,22.76
2023-05-14T09:57:39.856Z,22.96
2023-05-14T10:00:09.217Z,22.88
2023-05-14T10:02:38.905Z,22.14
2023-05-14T10:05:07.818Z,21.20
2023-05-14T10:07:48.710Z,21.38
2023-05-14T10:10:20.208Z,21.23
2023-05-14T10:12:57.567Z,20.54
2023-05-14T10:15:37.826Z,20.80
2023-05-14T10:18:12.192Z,22.22
2023-05-14T10:20:41.572Z,22.08
2023-05-14T10:23:09.464Z,21.62
2023-05-14T10:25:38.021Z,21.59
2023-05-14T10:28:06.161Z,20.95
2023-05-14T10:30:33.748Z,21.28
2023-05-14T10:33:13.548Z,21.06
2023-05-14T10:36:05.921Z,22.84
2023-05-14T10:38:38.492Z,22.57
2023-05-14T10:41:21.515Z,21.44
2023-05-14T10:43:50.422Z,20.68
2023-05-14T10:46:18.302Z,21.32
2023-05-14T10:48:46.434Z,21.87
2023-05-14T10:51:17.399Z,22.89
2023-05-14T10:53:45.165Z,23.08
2023-05-14T10:56:14.378Z,23.63
2023-05-14T10:58:44.505Z,22.41
2023-05-14T11:01:13.675Z,22.18
2023-05-14T11:03:45.131Z,21.88
2023-05-14T11:06:15.862Z,22.17
2023-05-14T11:08:44.484Z,21.62
2023-05-14T11:11:12.390Z,21.87
2023-05-14T11:13:41.422Z,21.39
2023-05-14T11:16:21.788Z,20.94
2023-05-14T11:19:03.513Z,20.96
2023-05-14T11:21:32.619Z,20.00
2023-05-14T11:24:03.877Z,19.59
2023-05-14T11:26:32.017Z,20.42
2023-05-14T11:29:00.117Z,20.32
2023-05-14T11:31:28.030Z,21.94
2023-05-14T11:33:55.964Z,22.07
2023-05-14T11:36:23.610Z,21.46
2023-05-14T11:38:52.535Z,21.34
2023-05-14T11:41:23.195Z,21.51
2023-05-14T11:43:51.313Z,20.59
2023-05-14T11:46:19.702Z,20.29
2023-05-14T11:48:48.094Z,20.44
2023-05-14T11:51:15.998Z,20.60
2023-05-14T11:53:46.016Z,20.37
2023-05-14T11:56:13.909Z,21.03
2023-05-14T11:58:41.628Z,20.67
2023-05-14T12:01:13.843Z,20.21
2023-05-14T12:03:42.300Z,20.28
2023-05-14T12:06:10.295Z,20.66
2023-05-14T12:08:38.028Z,20.79
2023-05-14T12:11:05.709Z,21.29
2023-05-14T12:13:33.672Z,21.12
2023-05-14T12:16:02.658Z,20.94
2023-05-14T12:18:32.296Z,20.24
2023-05-14T12:21:05.187Z,19.70
2023-05-14T12:23:33.006Z,20.07
2023-05-14T12:26:06.938Z,20.59
2023-05-14T12:28:38.203Z,21.05
2023-05-14T12:31:06.402Z,21.90
2023-05-14T12:33:34.116Z,20.42
2023-05-14T12:36:10.074Z,20.45
2023-05-14T12:38:48.554Z,19.94
2023-05-14T12:41:17.713Z,20.60
2023-05-14T12:43:48.836Z,20.54
2023-05-14T12:46:17.010Z,20.82
2023-05-14T12:48:45.215Z,21.36
2023-05-14T12:51:16.940Z,21.58
2023-05-14T12:53:44.759Z,22.55
2023-05-14T12:56:13.737Z,21.73
2023-05-14T12:58:41.519Z,21.94
2023-05-14T13:01:09.541Z,21.12
2023-05-14T13:03:37.278Z,20.96
2023-05-14T13:06:05.174Z,21.51
2023-05-14T13:08:32.888Z,21.59
2023-05-14T13:11:00.482Z,21.12
2023-05-14T13:13:28.352Z,20.13
2023-05-14T13:15:56.179Z,19.68
2023-05-14T13:18:23.868Z,19.73
2023-05-14T13:20:51.864Z,19.57
2023-05-14T13:23:19.636Z,19.63
2023-05-14T13:25:49.749Z,20.32
2023-05-14T13:28:17.700Z,20.38
2023-05-14T13:31:06.917Z,20.81
2023-05-14T13:33:37.301Z,21.53
2023-05-14T13:36:05.812Z,21.40
2023-05-14T13:38:33.802Z,22.54
2023-05-14T13:41:04.176Z,20.80
2023-05-14T13:43:35.332Z,21.21
2023-05-14T13:46:05.266Z,21.99
2023-05-14T13:48:33.654Z,22.49
2023-05-14T13:51:01.343Z,22.24
2023-05-14T13:53:29.234Z,22.91
2023-05-14T13:55:58.285Z,22.65
2023-05-14T13:58:26.341Z,22.67
2023-05-14T14:00:54.548Z,21.24
2023-05-14T14:03:22.410Z,22.18
2023-05-14T14:05:50.201Z,23.68
2023-05-14T14:08:24.082Z,23.05
2023-05-14T14:10:54.574Z,22.64
2023-05-14T14:13:22.929Z,22.87
2023-05-14T14:15:51.210Z,22.79
2023-05-14T14:18:19.163Z,22.39
2023-05-14T14:20:47.302Z,21.93
2023-05-14T14:23:15.135Z,22.81
2023-05-14T14:25:42.771Z,22.25
2023-05-14T14:28:10.558Z,23.08
2023-05-14T14:30:38.125Z,23.35
2023-05-14T14:33:05.968Z,23.53
2023-05-14T14:35:35.269Z,22.73
2023-05-14T14:38:03.077Z,23.28
2023-05-14T14:40:34.051Z,24.30
2023-05-14T14:43:02.232Z,24.78
2023-05-14T14:45:29.995Z,23.38
2023-05-14T14:48:41.300Z,23.60
2023-05-14T14:51:09.786Z,24.30
2023-05-14T14:53:37.512Z,24.73
2023-05-14T14:56:05.963Z,24.11
2023-05-14T14:58:33.719Z,23.87
2023-05-14T15:01:01.607Z,25.02
2023-05-14T15:03:29.496Z,24.71
2023-05-14T15:05:57.335Z,26.48
2023-05-14T15:08:27.713Z,27.48
2023-05-14T15:10:57.162Z,27.02
2023-05-14T15:13:25.701Z,26.53
2023-05-14T15:15:53.438Z,27.71
2023-05-14T15:18:21.300Z,26.74
2023-05-14T15:20:49.293Z,27.55
2023-05-14T15:23:17.223Z,28.29
2023-05-14T15:25:45.134Z,29.36
2023-05-14T15:28:12.769Z,28.34
2023-05-14T15:30:40.469Z,28.44
2023-05-14T15:33:08.828Z,29.00
2023-05-14T15:35:36.857Z,29.56
2023-05-14T15:38:04.618Z,28.37
2023-05-14T15:40:34.933Z,29.22
2023-05-14T15:43:03.056Z,29.27
2023-05-14T15:45:30.712Z,27.94
2023-05-14T15:47:58.608Z,28.30
2023-05-14T15:50:27.375Z,28.51
2023-05-14T15:52:55.381Z,29.44
2023-05-14T15:55:23.149Z,29.04
2023-05-14T15:57:50.861Z,29.36
2023-05-14T16:00:19.604Z,29.09
2023-05-14T16:02:47.634Z,30.24
2023-05-14T16:05:15.454Z,30.28
2023-05-14T16:07:43.152Z,29.92
2023-05-14T16:10:11.394Z,30.80
2023-05-14T16:12:39.298Z,30.18
2023-05-14T16:15:08.182Z,30.09
2023-05-14T16:17:36.064Z,30.49
2023-05-14T16:20:07.021Z,29.46
2023-05-14T16:22:36.109Z,29.56
2023-05-14T16:25:04.924Z,30.57
2023-05-14T16:27:33.415Z,30.41
2023-05-14T16:30:01.104Z,31.13
2023-05-14T16:32:29.084Z,29.06
2023-05-14T16:34:57.088Z,26.28
2023-05-14T16:37:24.854Z,26.61
2023-05-14T16:39:52.626Z,26.05
2023-05-14T16:42:20.243Z,26.70
2023-05-14T16:44:47.868Z,26.86
2023-05-14T16:47:15.585Z,26.27
2023-05-14T16:49:43.364Z,27.64
2023-05-14T16:52:11.215Z,25.60
2023-05-14T16:54:39.230Z,26.47
2023-05-14T16:57:07.003Z,26.38
2023-05-14T16:59:34.837Z,26.06
2023-05-14T17:02:03.072Z,26.24
2023-05-14T17:04:34.750Z,26.22
2023-05-14T17:07:03.926Z,26.42
2023-05-14T17:09:31.709Z,26.28
2023-05-14T17:11:59.455Z,26.11
2023-05-14T17:14:27.376Z,25.41
2023-05-14T17:16:55.156Z,24.39
2023-05-14T17:19:22.812Z,24.70
2023-05-14T17:21:50.854Z,24.71
2023-05-14T17:24:18.622Z,24.13
2023-05-14T17:26:46.333Z,24.63
2023-05-14T17:29:17.139Z,23.85
2023-05-14T17:31:44.876Z,24.18
2023-05-14T17:34:12.533Z,23.82
2023-05-14T17:36:40.247Z,23.58
2023-05-14T17:39:07.940Z,23.54
2023-05-14T17:41:35.683Z,23.34
2023-05-14T17:44:03.323Z,23.67
2023-05-14T17:46:31.165Z,23.19
2023-05-14T17:48:58.916Z,23.52
2023-05-14T17:51:26.648Z,23.16
2023-05-14T17:53:54.331Z,23.26
2023-05-14T17:56:23.219Z,21.82
2023-05-14T17:58:51.025Z,22.95
2023-05-14T18:01:19.287Z,22.29
2023-05-14T18:03:49.562Z,22.40
2023-05-14T18:06:17.616Z,22.43
2023-05-14T18:08:45.377Z,22.29
2023-05-14T18:11:13.215Z,22.45
2023-05-14T18:13:41.094Z,22.25
2023-05-14T18:16:08.835Z,21.96
2023-05-14T18:18:36.618Z,22.48
2023-05-14T18:21:05.382Z,22.58
2023-05-14T18:23:33.602Z,21.61
2023-05-14T18:26:01.554Z,21.88
2023-05-14T18:28:29.381Z,21.39
2023-05-14T18:30:57.142Z,21.39
2023-05-14T18:33:25.806Z,21.96
2023-05-14T18:35:55.705Z,21.21
2023-05-14T18:38:23.742Z,21.74
2023-05-14T18:40:51.680Z,21.38
2023-05-14T18:43:19.786Z,20.71
2023-05-14T18:45:48.273Z,21.21
2023-05-14T18:48:16.495Z,21.08
2023-05-14T18:50:44.381Z,21.03
2023-05-14T18:53:12.179Z,20.59
2023-05-14T18:55:43.167Z,20.38
2023-05-14T18:58:12.061Z,20.80
2023-05-14T19:00:40.848Z,20.73
2023-05-14T19:03:11.334Z,20.50
2023-05-14T19:05:39.315Z,20.39
2023-05-14T19:08:07.652Z,19.77
2023-05-14T19:10:35.439Z,20.05
2023-05-14T19:13:03.547Z,19.74
2023-05-14T19:15:32.313Z,20.17
2023-05-14T19:18:00.887Z,20.10
2023-05-14T19:20:28.705Z,19.93
2023-05-14T19:22:56.335Z,19.78
2023-05-14T19:25:24.608Z,19.60
2023-05-14T19:27:53.620Z,19.96
2023-05-14T19:30:21.501Z,19.56
2023-05-14T19:32:49.647Z,18.98
2023-05-14T19:35:17.532Z,18.74
2023-05-14T19:37:46.305Z,19.27
2023-05-14T19:40:13.958Z,18.39
2023-05-14T19:42:41.711Z,18.92
2023-05-14T19:45:10.197Z,19.12
2023-05-14T19:47:37.922Z,18.41
2023-05-14T19:50:08.384Z,19.37
2023-05-14T19:52:36.188Z,19.66
2023-05-14T19:55:04.251Z,19.80
2023-05-14T19:57:31.937Z,19.82
2023-05-14T19:59:59.748Z,19.58
2023-05-14T20:02:27.505Z,19.72
2023-05-14T20:04:55.413Z,19.44
2023-05-14T20:07:24.944Z,19.69
2023-05-14T20:09:52.633Z,19.41
2023-05-14T20:12:20.360Z,19.22
2023-05-14T20:14:48.010Z,18.91
2023-05-14T20:17:15.883Z,19.15
2023-05-14T20:19:43.776Z,18.75
2023-05-14T20:22:11.403Z,19.13
2023-05-14T20:24:41.022Z,19.07
2023-05-14T20:27:08.882Z,18.93
2023-05-14T20:29:36.463Z,18.60
2023-05-14T20:32:04.500Z,18.75
2023-05-14T20:34:32.116Z,18.98
2023-05-14T20:36:59.853Z,18.58
2023-05-14T20:39:27.481Z,17.75
2023-05-14T20:41:55.134Z,17.43
2023-05-14T20:44:22.807Z,17.24
2023-05-14T20:46:50.704Z,17.36
2023-05-14T20:49:18.420Z,18.35
2023-05-14T20:51:46.135Z,18.02
2023-05-14T20:54:13.777Z,18.41
2023-05-14T20:56:41.468Z,18.57
2023-05-14T20:59:09.176Z,18.08
2023-05-14T21:01:37.068Z,17.65
2023-05-14T21:04:04.983Z,17.82
2023-05-14T21:06:32.764Z,17.84
2023-05-14T21:09:02.711Z,18.18
2023-05-14T21:11:30.396Z,18.48
2023-05-14T21:13:58.086Z,18.59
2023-05-14T21:16:25.891Z,18.58
2023-05-14T21:18:53.669Z,18.63
2023-05-14T21:21:23.986Z,18.43
2023-05-14T21:23:51.959Z,18.59
2023-05-14T21:26:22.151Z,18.15
2023-05-14T21:28:49.821Z,17.41
2023-05-14T21:31:17.562Z,17.88
2023-05-14T21:33:45.282Z,18.10
2023-05-14T21:36:13.013Z,18.18
2023-05-14T21:38:41.573Z,18.22
2023-05-14T21:41:12.128Z,17.86
2023-05-14T21:43:40.754Z,18.16
2023-05-14T21:46:08.642Z,18.01
2023-05-14T21:48:36.412Z,18.11
2023-05-14T21:51:04.265Z,18.37
2023-05-14T21:53:31.928Z,18.06
2023-05-14T21:55:59.511Z,17.51
2023-05-14T21:58:27.685Z,18.19
2023-05-14T22:00:55.280Z,18.17
2023-05-14T22:03:23.268Z,18.30
2023-05-14T22:05:51.581Z,18.47
2023-05-14T22:08:19.343Z,18.55
2023-05-14T22:10:47.539Z,18.14
2023-05-14T22:13:15.322Z,18.14
2023-05-14T22:15:42.975Z,18.12
2023-05-14T22:18:12.625Z,18.06
2023-05-14T22:20:40.525Z,18.25
2023-05-14T22:23:08.204Z,17.91
2023-05-14T22:25:35.829Z,18.11
2023-05-14T22:28:03.573Z,18.06
2023-05-14T22:30:31.239Z,17.71
2023-05-14T22:32:58.959Z,17.92
2023-05-14T22:35:27.004Z,17.73
2023-05-14T22:37:54.776Z,18.09
2023-05-14T22:40:22.404Z,17.49
2023-05-14T22:42:50.021Z,17.64
2023-05-14T22:45:17.877Z,17.61
2023-05-14T22:47:45.539Z,17.64
2023-05-14T22:50:13.312Z,17.54
2023-05-14T22:52:41.403Z,17.14
2023-05-14T22:55:09.386Z,16.91
2023-05-14T22:57:37.186Z,16.71
2023-05-14T23:00:06.972Z,16.92
2023-05-14T23:02:34.713Z,17.05
2023-05-14T23:05:02.566Z,16.96
2023-05-14T23:07:30.246Z,16.85
2023-05-14T23:09:57.924Z,16.51
2023-05-14T23:12:25.998Z,16.50
2023-05-14T23:14:53.589Z,16.45
2023-05-14T23:17:21.313Z,16.23
2023-05-14T23:19:49.026Z,15.35
2023-05-14T23:22:16.782Z,15.51
2023-05-14T23:24:45.018Z,15.60
2023-05-14T23:27:13.564Z,15.88
2023-05-14T23:29:41.235Z,15.98
2023-05-14T23:32:11.768Z,15.78
2023-05-14T23:34:39.617Z,15.43
2023-05-14T23:37:07.775Z,14.82
2023-05-14T23:39:35.391Z,15.14
2023-05-14T23:42:03.133Z,14.97
2023-05-14T23:44:30.812Z,14.87
2023-05-14T23:46:58.572Z,15.15
2023-05-14T23:49:26.363Z,15.49
2023-05-14T23:51:54.770Z,15.40
2023-05-14T23:54:22.430Z,15.15
2023-05-14T23:56:50.114Z,15.49
2023-05-14T23:59:18.407Z,15.50
